createdAt,value
2023-04-02T00:01:02.638Z,8.30
2023-04-02T00:04:03.538Z,8.22
2023-04-02T00:06:32.982Z,8.15
2023-04-02T00:09:33.589Z,8.03
2023-04-02T00:12:17.571Z,7.99
2023-04-02T00:14:53.746Z,7.94
2023-04-02T00:17:24.917Z,7.95
2023-04-02T00:19:59.101Z,7.97
2023-04-02T00:22:33.864Z,8.03
2023-04-02T00:25:10.486Z,8.23
2023-04-02T00:27:38.217Z,8.33
2023-04-02T00:30:06.472Z,8.58
2023-04-02T00:32:36.440Z,8.71
2023-04-02T00:35:05.977Z,8.84
2023-04-02T00:37:39.108Z,8.95
2023-04-02T00:40:16.865Z,9.06
2023-04-02T00:42:46.528Z,9.13
2023-04-02T00:45:21.698Z,9.15
2023-04-02T00:47:49.608Z,9.20
2023-04-02T00:50:26.462Z,9.22
2023-04-02T00:52:55.702Z,9.22
2023-04-02T00:55:28.589Z,9.25
2023-04-02T00:57:57.430Z,9.30
2023-04-02T01:00:36.681Z,9.30
2023-04-02T01:03:19.583Z,9.31
2023-04-02T01:06:11.005Z,9.25
2023-04-02T01:08:57.774Z,9.17
2023-04-02T01:12:05.475Z,9.09
2023-04-02T01:14:47.928Z,8.97
2023-04-02T01:17:30.626Z,8.93
2023-04-02T01:20:09.507Z,8.89
2023-04-02T01:22:49.592Z,8.86
2023-04-02T01:25:28.451Z,8.83
2023-04-02T01:28:08.386Z,8.81
2023-04-02T01:30:37.749Z,8.86
2023-04-02T01:33:10.636Z,8.93
2023-04-02T01:35:42.547Z,9.02
2023-04-02T01:38:25.866Z,9.17
2023-04-02T01:41:14.990Z,9.18
2023-04-02T01:43:57.282Z,9.15
2023-04-02T01:46:33.508Z,9.11
2023-04-02T01:49:12.432Z,9.01
2023-04-02T01:51:43.926Z,8.95
2023-04-02T01:54:12.306Z,8.92
2023-04-02T01:56:42.432Z,8.88
2023-04-02T01:59:12.189Z,8.76
2023-04-02T02:01:49.460Z,8.77
2023-04-02T02:04:20.507Z,8.78
2023-04-02T02:06:49.716Z,8.76
2023-04-02T02:09:24.094Z,8.76
2023-04-02T02:11:52.596Z,8.76
2023-04-02T02:14:23.743Z,8.75
2023-04-02T02:16:53.507Z,8.76
2023-04-02T02:19:33.310Z,8.72
2023-04-02T02:22:35.072Z,8.71
2023-04-02T02:25:18.773Z,8.70
2023-04-02T02:27:49.004Z,8.70
2023-04-02T02:30:28.428Z,8.76
2023-04-02T02:33:18.095Z,8.75
2023-04-02T02:36:15.147Z,8.77
2023-04-02T02:38:58.915Z,8.77
2023-04-02T02:41:44.814Z,8.77
2023-04-02T02:44:18.323Z,8.75
2023-04-02T02:47:19.969Z,8.80
2023-04-02T02:49:52.460Z,8.85
2023-04-02T02:52:24.940Z,8.93
2023-04-02T02:55:06.397Z,8.86
2023-04-02T02:57:39.339Z,8.77
2023-04-02T03:00:13.069Z,8.71
2023-04-02T03:02:43.300Z,8.61
2023-04-02T03:05:17.273Z,8.57
2023-04-02T03:07:45.197Z,8.53
2023-04-02T03:10:18.438Z,8.46
2023-04-02T03:13:01.126Z,8.45
2023-04-02T03:15:36.530Z,8.40
2023-04-02T03:18:12.197Z,8.47
2023-04-02T03:20:49.845Z,8.46
2023-04-02T03:23:36.048Z,8.45
2023-04-02T03:26:13.140Z,8.50
2023-04-02T03:28:47.619Z,8.53
2023-04-02T03:31:29.965Z,8.70
2023-04-02T03:34:09.021Z,8.80
2023-04-02T03:36:46.640Z,8.85
2023-04-02T03:39:39.132Z,8.89
2023-04-02T03:42:14.841Z,8.88
2023-04-02T03:44:48.384Z,8.99
2023-04-02T03:47:25.439Z,9.00
2023-04-02T03:50:09.335Z,9.03
2023-04-02T03:52:38.910Z,9.05
2023-04-02T03:55:34.896Z,9.08
2023-04-02T03:58:18.996Z,9.15
2023-04-02T04:00:49.504Z,9.14
2023-04-02T04:03:31.554Z,9.14
2023-04-02T04:06:11.394Z,9.14
2023-04-02T04:08:47.599Z,9.14
2023-04-02T04:11:18.605Z,9.15
2023-04-02T04:14:25.588Z,9.22
2023-04-02T04:17:24.703Z,9.22
2023-04-02T04:20:08.032Z,9.22
2023-04-02T04:22:35.947Z,9.21
2023-04-02T04:25:07.465Z,9.20
2023-04-02T04:27:52.842Z,9.21
2023-04-02T04:30:34.815Z,9.22
2023-04-02T04:33:10.914Z,9.26
2023-04-02T04:35:45.512Z,9.31
2023-04-02T04:38:21.883Z,9.36
2023-04-02T04:40:54.983Z,9.41
2023-04-02T04:43:34.668Z,9.44
2023-04-02T04:46:11.074Z,9.47
2023-04-02T04:48:53.855Z,9.48
2023-04-02T04:51:30.132Z,9.52
2023-04-02T04:54:01.674Z,9.55
2023-04-02T04:56:33.544Z,9.56
2023-04-02T04:59:30.465Z,9.60
2023-04-02T05:02:12.554Z,9.48
2023-04-02T05:04:50.200Z,9.44
2023-04-02T05:07:29.659Z,9.51
2023-04-02T05:10:05.481Z,9.59
2023-04-02T05:12:55.480Z,9.69
2023-04-02T05:15:44.639Z,9.82
2023-04-02T05:18:18.156Z,9.98
2023-04-02T05:21:01.360Z,10.16
2023-04-02T05:23:38.512Z,10.40
2023-04-02T05:26:22.773Z,10.58
2023-04-02T05:29:03.273Z,10.73
2023-04-02T05:31:49.914Z,10.83
2023-04-02T05:34:28.861Z,10.91
2023-04-02T05:36:57.030Z,11.07
2023-04-02T05:39:28.061Z,11.13
2023-04-02T05:42:08.501Z,11.18
2023-04-02T05:44:41.840Z,11.22
2023-04-02T05:47:16.005Z,11.27
2023-04-02T05:49:50.585Z,11.40
2023-04-02T05:52:23.603Z,11.52
2023-04-02T05:55:01.228Z,11.59
2023-04-02T05:57:46.836Z,11.61
2023-04-02T06:00:26.354Z,11.52
2023-04-02T06:03:07.390Z,11.52
2023-04-02T06:05:40.790Z,11.64
2023-04-02T06:08:37.732Z,11.66
2023-04-02T06:11:21.400Z,11.76
2023-04-02T06:13:49.130Z,11.82
2023-04-02T06:16:17.620Z,11.78
2023-04-02T06:18:46.168Z,11.81
2023-04-02T06:21:18.919Z,11.80
2023-04-02T06:24:07.982Z,11.73
2023-04-02T06:26:44.565Z,11.74
2023-04-02T06:29:44.241Z,11.78
2023-04-02T06:32:14.798Z,11.86
2023-04-02T06:34:43.751Z,12.00
2023-04-02T06:37:32.862Z,12.05
2023-04-02T06:40:04.259Z,12.28
2023-04-02T06:42:38.760Z,12.56
2023-04-02T06:45:07.729Z,12.77
2023-04-02T06:47:35.580Z,12.98
2023-04-02T06:50:13.865Z,12.96
2023-04-02T06:52:48.667Z,12.91
2023-04-02T06:55:28.576Z,12.98
2023-04-02T06:57:56.183Z,12.96
2023-04-02T07:00:31.460Z,12.79
2023-04-02T07:03:02.905Z,12.79
2023-04-02T07:05:33.009Z,12.68
2023-04-02T07:08:01.073Z,12.88
2023-04-02T07:10:28.695Z,13.11
2023-04-02T07:12:56.299Z,13.13
2023-04-02T07:15:25.510Z,13.43
2023-04-02T07:17:54.792Z,13.41
2023-04-02T07:20:25.943Z,13.34
2023-04-02T07:22:54.279Z,13.75
2023-04-02T07:25:24.527Z,13.74
2023-04-02T07:27:53.558Z,13.93
2023-04-02T07:30:23.302Z,13.80
2023-04-02T07:32:51.019Z,14.17
2023-04-02T07:35:18.752Z,14.38
2023-04-02T07:37:46.624Z,14.31
2023-04-02T07:40:22.950Z,14.48
2023-04-02T07:42:51.264Z,14.58
2023-04-02T07:45:21.407Z,14.66
2023-04-02T07:47:49.079Z,14.79
2023-04-02T07:50:16.866Z,14.93
2023-04-02T07:52:45.410Z,15.00
2023-04-02T07:55:15.660Z,15.10
2023-04-02T07:57:51.928Z,15.30
2023-04-02T08:00:22.683Z,15.75
2023-04-02T08:02:50.829Z,16.26
2023-04-02T08:05:20.948Z,16.38
2023-04-02T08:07:56.769Z,16.17
2023-04-02T08:10:25.620Z,16.12
2023-04-02T08:12:55.430Z,16.04
2023-04-02T08:15:23.145Z,16.15
2023-04-02T08:17:53.519Z,16.13
2023-04-02T08:20:23.207Z,16.47
2023-04-02T08:22:51.437Z,16.68
2023-04-02T08:25:19.045Z,16.67
2023-04-02T08:27:49.929Z,17.06
2023-04-02T08:30:19.005Z,17.25
2023-04-02T08:32:47.108Z,17.78
2023-04-02T08:35:17.093Z,17.30
2023-04-02T08:37:45.056Z,17.52
2023-04-02T08:40:43.765Z,17.70
2023-04-02T08:43:23.781Z,17.85
2023-04-02T08:46:00.590Z,17.50
2023-04-02T08:48:33.407Z,17.58
2023-04-02T08:51:07.641Z,17.62
2023-04-02T08:53:39.339Z,17.50
2023-04-02T08:56:28.694Z,17.97
2023-04-02T08:59:02.808Z,17.87
2023-04-02T09:01:42.690Z,18.17
2023-04-02T09:04:19.892Z,17.51
2023-04-02T09:06:49.455Z,17.42
2023-04-02T09:09:19.247Z,17.88
2023-04-02T09:11:54.207Z,18.13
2023-04-02T09:14:56.713Z,17.70
2023-04-02T09:17:26.435Z,17.78
2023-04-02T09:20:05.588Z,17.76
2023-04-02T09:22:35.980Z,18.13
2023-04-02T09:25:06.013Z,17.99
2023-04-02T09:27:36.366Z,18.07
2023-04-02T09:30:39.412Z,18.17
2023-04-02T09:33:09.271Z,18.14
2023-04-02T09:35:58.598Z,18.14
2023-04-02T09:38:31.590Z,18.50
2023-04-02T09:41:02.198Z,18.89
2023-04-02T09:43:39.667Z,19.17
2023-04-02T09:46:25.895Z,19.11
2023-04-02T09:49:02.387Z,18.96
2023-04-02T09:51:34.744Z,18.56
2023-04-02T09:54:05.925Z,18.21
2023-04-02T09:56:38.444Z,17.65
2023-04-02T09:59:08.809Z,17.22
2023-04-02T10:01:56.811Z,16.98
2023-04-02T10:04:47.280Z,16.98
2023-04-02T10:07:43.661Z,16.51
2023-04-02T10:10:37.667Z,16.58
2023-04-02T10:13:10.578Z,16.71
2023-04-02T10:15:57.066Z,16.75
2023-04-02T10:18:31.366Z,16.96
2023-04-02T10:21:03.486Z,17.22
2023-04-02T10:23:32.724Z,16.87
2023-04-02T10:26:42.316Z,17.08
2023-04-02T10:29:21.247Z,17.08
2023-04-02T10:31:57.174Z,17.22
2023-04-02T10:34:44.210Z,17.26
2023-04-02T10:37:37.077Z,17.00
2023-04-02T10:40:09.952Z,17.09
2023-04-02T10:42:40.448Z,16.69
2023-04-02T10:45:29.567Z,16.72
2023-04-02T10:48:23.405Z,16.65
2023-04-02T10:51:26.294Z,16.86
2023-04-02T10:54:16.460Z,17.53
2023-04-02T10:56:51.212Z,17.58
2023-04-02T10:59:33.265Z,18.95
2023-04-02T11:02:07.821Z,19.15
2023-04-02T11:04:48.576Z,18.96
2023-04-02T11:07:24.908Z,19.38
2023-04-02T11:09:57.055Z,20.49
2023-04-02T11:12:30.911Z,21.42
2023-04-02T11:14:58.982Z,21.14
2023-04-02T11:17:26.947Z,23.15
2023-04-02T11:19:56.089Z,23.20
2023-04-02T11:22:29.351Z,21.55
2023-04-02T11:24:58.620Z,19.72
2023-04-02T11:27:32.667Z,19.01
2023-04-02T11:30:25.694Z,18.51
2023-04-02T11:32:54.342Z,18.16
2023-04-02T11:35:38.453Z,18.04
2023-04-02T11:38:12.289Z,17.82
2023-04-02T11:40:49.401Z,17.29
2023-04-02T11:43:35.967Z,17.19
2023-04-02T11:46:06.607Z,16.92
2023-04-02T11:48:37.002Z,16.50
2023-04-02T11:51:24.205Z,16.28
2023-04-02T11:53:54.039Z,16.69
2023-04-02T11:56:27.639Z,17.81
2023-04-02T11:59:13.850Z,19.51
2023-04-02T12:02:09.505Z,20.43
2023-04-02T12:04:55.768Z,21.76
2023-04-02T12:07:52.293Z,21.60
2023-04-02T12:10:50.716Z,21.70
2023-04-02T12:13:43.264Z,22.11
2023-04-02T12:16:13.378Z,23.12
2023-04-02T12:18:53.709Z,23.99
2023-04-02T12:21:24.969Z,24.13
2023-04-02T12:23:55.700Z,23.34
2023-04-02T12:26:32.078Z,23.77
2023-04-02T12:29:24.923Z,23.96
2023-04-02T12:31:54.141Z,23.92
2023-04-02T12:34:24.499Z,23.34
2023-04-02T12:37:02.403Z,22.58
2023-04-02T12:39:31.902Z,22.21
2023-04-02T12:41:59.983Z,22.57
2023-04-02T12:44:32.806Z,22.24
2023-04-02T12:47:00.704Z,22.18
2023-04-02T12:49:44.308Z,22.56
2023-04-02T12:52:14.952Z,21.84
2023-04-02T12:55:00.271Z,21.18
2023-04-02T12:57:28.857Z,21.78
2023-04-02T13:00:06.442Z,21.39
2023-04-02T13:02:45.503Z,21.16
2023-04-02T13:05:13.831Z,21.46
2023-04-02T13:07:47.751Z,21.43
2023-04-02T13:10:27.466Z,20.90
2023-04-02T13:13:05.117Z,20.24
2023-04-02T13:15:37.142Z,20.39
2023-04-02T13:18:14.031Z,20.62
2023-04-02T13:20:43.232Z,20.87
2023-04-02T13:23:34.500Z,20.74
2023-04-02T13:26:18.774Z,20.38
2023-04-02T13:29:27.928Z,20.43
2023-04-02T13:32:01.839Z,20.19
2023-04-02T13:34:30.106Z,19.37
2023-04-02T13:36:58.351Z,18.99
2023-04-02T13:39:27.125Z,18.95
2023-04-02T13:42:04.101Z,18.74
2023-04-02T13:44:34.629Z,18.28
2023-04-02T13:47:02.681Z,18.05
2023-04-02T13:49:32.198Z,18.14
2023-04-02T13:52:05.140Z,18.12
2023-04-02T13:54:48.981Z,18.19
2023-04-02T13:57:16.935Z,18.28
2023-04-02T13:59:44.609Z,18.09
2023-04-02T14:02:17.733Z,17.73
2023-04-02T14:05:02.078Z,17.46
2023-04-02T14:07:59.975Z,17.34
2023-04-02T14:10:56.880Z,17.11
2023-04-02T14:13:30.104Z,16.89
2023-04-02T14:16:32.184Z,16.80
2023-04-02T14:19:27.728Z,16.65
2023-04-02T14:22:01.605Z,16.52
2023-04-02T14:25:07.749Z,16.36
2023-04-02T14:27:57.777Z,16.17
2023-04-02T14:30:54.495Z,16.18
2023-04-02T14:33:56.648Z,16.00
2023-04-02T14:36:37.073Z,15.75
2023-04-02T14:39:13.992Z,15.55
2023-04-02T14:41:57.266Z,15.35
2023-04-02T14:44:31.607Z,15.15
2023-04-02T14:47:23.646Z,15.04
2023-04-02T14:49:57.938Z,14.75
2023-04-02T14:52:29.358Z,14.61
2023-04-02T14:55:04.556Z,14.41
2023-04-02T14:57:33.757Z,14.37
2023-04-02T15:00:26.182Z,14.27
2023-04-02T15:02:56.955Z,14.17
2023-04-02T15:05:34.257Z,14.15
2023-04-02T15:08:07.447Z,14.11
2023-04-02T15:10:42.072Z,14.00
2023-04-02T15:13:19.823Z,13.82
2023-04-02T15:15:52.503Z,13.63
2023-04-02T15:18:20.178Z,13.40
2023-04-02T15:20:50.875Z,13.15
2023-04-02T15:23:30.438Z,12.67
2023-04-02T15:26:19.853Z,12.04
2023-04-02T15:29:02.181Z,11.23
2023-04-02T15:31:33.889Z,10.93
2023-04-02T15:34:22.487Z,10.67
2023-04-02T15:36:56.248Z,10.56
2023-04-02T15:39:26.885Z,10.54
2023-04-02T15:42:25.624Z,10.52
2023-04-02T15:45:08.789Z,10.57
2023-04-02T15:47:42.939Z,10.52
2023-04-02T15:50:45.982Z,10.59
2023-04-02T15:53:24.382Z,10.57
2023-04-02T15:56:14.246Z,10.58
2023-04-02T15:59:00.613Z,10.61
2023-04-02T16:01:43.877Z,10.72
2023-04-02T16:04:45.155Z,10.79
2023-04-02T16:07:46.823Z,10.85
2023-04-02T16:10:40.328Z,10.96
2023-04-02T16:13:19.444Z,11.02
2023-04-02T16:16:02.751Z,11.25
2023-04-02T16:18:55.060Z,11.38
2023-04-02T16:21:25.290Z,11.48
2023-04-02T16:23:55.449Z,11.65
2023-04-02T16:26:41.006Z,11.73
2023-04-02T16:29:23.990Z,11.78
2023-04-02T16:32:12.590Z,11.90
2023-04-02T16:37:52.641Z,11.97
2023-04-02T16:40:51.672Z,11.88
2023-04-02T16:43:33.945Z,11.88
2023-04-02T16:46:01.605Z,11.67
2023-04-02T16:48:58.656Z,11.41
2023-04-02T16:51:35.364Z,11.30
2023-04-02T16:54:30.461Z,11.17
2023-04-02T16:57:04.141Z,11.01
2023-04-02T16:59:59.581Z,10.88
2023-04-02T17:02:27.236Z,10.74
2023-04-02T17:05:18.193Z,10.61
2023-04-02T17:07:49.748Z,10.49
2023-04-02T17:10:17.418Z,10.30
2023-04-02T17:13:04.557Z,10.18
2023-04-02T17:15:39.909Z,10.08
2023-04-02T17:18:26.483Z,9.92
2023-04-02T17:20:55.001Z,9.74
2023-04-02T17:23:23.374Z,9.89
2023-04-02T17:25:55.584Z,9.72
2023-04-02T17:28:29.597Z,9.59
2023-04-02T17:31:01.280Z,9.47
2023-04-02T17:33:29.036Z,9.41
2023-04-02T17:36:22.285Z,9.31
2023-04-02T17:39:17.920Z,9.20
2023-04-02T17:42:14.453Z,9.14
2023-04-02T17:44:47.950Z,9.05
2023-04-02T17:47:21.733Z,8.94
2023-04-02T17:50:11.003Z,8.85
2023-04-02T17:52:56.057Z,8.80
2023-04-02T17:55:43.299Z,8.70
2023-04-02T17:58:28.026Z,8.63
2023-04-02T18:01:14.034Z,8.54
2023-04-02T18:03:50.340Z,8.51
2023-04-02T18:06:28.840Z,8.52
2023-04-02T18:09:08.895Z,8.55
2023-04-02T18:11:51.533Z,8.50
2023-04-02T18:14:37.598Z,8.49
2023-04-02T18:17:36.150Z,8.45
2023-04-02T18:20:28.337Z,8.38
2023-04-02T18:23:11.568Z,8.30
2023-04-02T18:25:58.853Z,8.26
2023-04-02T18:28:53.174Z,8.25
2023-04-02T18:31:59.263Z,8.26
2023-04-02T18:34:29.848Z,8.28
2023-04-02T18:37:13.951Z,8.28
2023-04-02T18:39:44.253Z,8.30
2023-04-02T18:42:39.502Z,8.28
2023-04-02T18:45:13.168Z,8.32
2023-04-02T18:47:46.656Z,8.31
2023-04-02T18:50:31.102Z,8.26
2023-04-02T18:52:58.699Z,8.25
2023-04-02T18:55:30.705Z,8.19
2023-04-02T18:58:28.079Z,8.19
2023-04-02T19:00:57.204Z,8.15
2023-04-02T19:03:33.404Z,8.15
2023-04-02T19:06:05.548Z,8.19
2023-04-02T19:08:55.919Z,8.12
2023-04-02T19:11:28.644Z,8.12
2023-04-02T19:14:13.234Z,8.05
2023-04-02T19:16:46.748Z,7.98
2023-04-02T19:19:23.158Z,7.94
2023-04-02T19:22:13.699Z,7.88
2023-04-02T19:24:59.825Z,7.86
2023-04-02T19:27:27.503Z,7.85
2023-04-02T19:30:02.425Z,7.87
2023-04-02T19:32:42.451Z,7.84
2023-04-02T19:35:24.104Z,7.81
2023-04-02T19:38:22.666Z,7.78
2023-04-02T19:41:00.572Z,7.73
2023-04-02T19:43:29.488Z,7.72
2023-04-02T19:45:57.511Z,7.71
2023-04-02T19:48:40.090Z,7.67
2023-04-02T19:51:07.836Z,7.67
2023-04-02T19:53:37.724Z,7.63
2023-04-02T19:56:06.997Z,7.59
2023-04-02T19:58:36.689Z,7.58
2023-04-02T20:01:05.089Z,7.60
2023-04-02T20:03:33.008Z,7.62
2023-04-02T20:06:01.066Z,7.66
2023-04-02T20:08:28.925Z,7.57
2023-04-02T20:10:58.665Z,7.65
2023-04-02T20:13:26.403Z,7.65
2023-04-02T20:16:00.145Z,7.66
2023-04-02T20:18:28.763Z,7.66
2023-04-02T20:20:56.660Z,7.64
2023-04-02T20:23:26.484Z,7.64
2023-04-02T20:25:58.883Z,7.66
2023-04-02T20:28:27.881Z,7.66
2023-04-02T20:31:06.278Z,7.64
2023-04-02T20:33:34.142Z,7.64
2023-04-02T20:36:05.549Z,7.58
2023-04-02T20:38:34.937Z,7.59
2023-04-02T20:41:04.519Z,7.60
2023-04-02T20:43:32.250Z,7.63
2023-04-02T20:46:04.259Z,7.63
2023-04-02T20:48:32.731Z,7.65
2023-04-02T20:51:02.198Z,7.68
2023-04-02T20:53:31.100Z,7.67
2023-04-02T20:56:06.258Z,7.62
2023-04-02T20:58:35.455Z,7.67
2023-04-02T21:01:11.986Z,7.63
2023-04-02T21:03:40.557Z,7.65
2023-04-02T21:06:28.531Z,7.58
2023-04-02T21:08:56.324Z,7.58
2023-04-02T21:11:26.271Z,7.56
2023-04-02T21:13:54.366Z,7.51
2023-04-02T21:16:24.777Z,7.43
2023-04-02T21:18:53.865Z,7.39
2023-04-02T21:21:23.191Z,7.35
2023-04-02T21:23:59.323Z,7.34
2023-04-02T21:26:28.495Z,7.32
2023-04-02T21:28:58.345Z,7.28
2023-04-02T21:31:31.200Z,7.32
2023-04-02T21:33:59.950Z,7.35
2023-04-02T21:36:36.390Z,7.40
2023-04-02T21:39:08.943Z,7.43
2023-04-02T21:41:39.247Z,7.47
2023-04-02T21:44:13.608Z,7.47
2023-04-02T21:46:43.098Z,7.46
2023-04-02T21:49:13.106Z,7.45
2023-04-02T21:51:42.333Z,7.41
2023-04-02T21:54:12.542Z,7.41
2023-04-02T21:56:42.612Z,7.39
2023-04-02T21:59:14.137Z,7.41
2023-04-02T22:01:46.061Z,7.39
2023-04-02T22:04:19.862Z,7.37
2023-04-02T22:06:48.385Z,7.34
2023-04-02T22:09:19.032Z,7.34
2023-04-02T22:11:49.525Z,7.33
2023-04-02T22:14:17.955Z,7.31
2023-04-02T22:16:45.801Z,7.29
2023-04-02T22:19:18.610Z,7.26
2023-04-02T22:21:47.866Z,7.24
2023-04-02T22:24:19.088Z,7.25
2023-04-02T22:26:47.207Z,7.27
2023-04-02T22:29:16.083Z,7.23
2023-04-02T22:31:43.962Z,7.21
2023-04-02T22:34:11.881Z,7.22
2023-04-02T22:36:39.481Z,7.17
2023-04-02T22:39:10.435Z,7.15
2023-04-02T22:41:38.644Z,7.12
2023-04-02T22:44:06.759Z,7.09
2023-04-02T22:46:34.870Z,7.07
2023-04-02T22:49:03.417Z,7.05
2023-04-02T22:51:32.102Z,7.03
2023-04-02T22:54:01.966Z,7.03
2023-04-02T22:56:32.861Z,7.01
2023-04-02T22:59:00.815Z,7.00
2023-04-02T23:01:34.431Z,6.96
2023-04-02T23:04:05.420Z,6.96
2023-04-02T23:06:33.236Z,6.97
2023-04-02T23:09:00.861Z,6.94
2023-04-02T23:11:29.223Z,6.96
2023-04-02T23:13:58.914Z,6.93
2023-04-02T23:16:29.295Z,6.92
2023-04-02T23:18:57.464Z,6.87
2023-04-02T23:21:27.784Z,6.88
2023-04-02T23:23:56.828Z,6.87
2023-04-02T23:26:33.728Z,6.91
2023-04-02T23:29:02.422Z,6.80
2023-04-02T23:31:30.211Z,6.79
2023-04-02T23:33:57.925Z,6.78
2023-04-02T23:36:28.848Z,6.75
2023-04-02T23:39:01.298Z,6.67
2023-04-02T23:41:30.338Z,6.67
2023-04-02T23:43:59.097Z,6.68
2023-04-02T23:46:27.077Z,6.62
2023-04-02T23:48:55.693Z,6.58
2023-04-02T23:51:24.314Z,6.55
2023-04-02T23:53:53.568Z,6.53
2023-04-02T23:56:21.777Z,6.47
2023-04-02T23:58:50.726Z,6.46
